AREA preflight bulletin
Updated "live" 26 May 2018, 13:45

back to the map




METAR og TAF


KANGERLUSSUAQ
  AKTUEL BGSF 261320Z AUTO 25016KT 9999NDV NCD 06/M02 Q0994=
  TAF 24 timer BGSF 261055Z 2612/2718 25012KT 9999 SCT180 BECMG 2615/2618 BKN040 TEMPO 2620/2716 2500 -SN BKN012=

SISIMIUT
  AKTUEL BGSS 261250Z 32016KT 9999 VCFG FEW004 SCT140 02/M04 Q0996 RMK VIS 7000W, RWY 13 MOD TURB / RWY 31 SEV TURB=
  TAF 9 timer BGSS 261158Z 2612/2617 31020KT 9999 SCT005 BKN120 TEMPO 2612/2617 4000 -SNRA BKN005 BECMG 2615/2617 31012KT=

MANIITSOQ
  AKTUEL BGMQ 261320Z AUTO 28007KT 9999NDV SCT013/// BKN085/// 02/M00 Q0998=

NUUK
  AKTUEL BGGH 261250Z 20018KT 4700 -SHSN BKN022 00/M01 Q1000=
  TAF 9 timer BGGH 261120Z 2612/2621 20015KT 9999 FEW006 BKN010 TEMPO 2612/2621 2000 -SHSN BKN006=

ILULISSAT
  AKTUEL BGJN 261250Z 28005KT 9999 FEW180 04/M03 Q0994 RMK 1CI =
  TAF 9 timer BGJN 261120Z 2612/2620 VRB07KT 9999 SCT180 BECMG 2616/2619 20015KT TEMPO 2618/2620 BKN008=

AASIAAT
  AKTUEL BGAA 261250Z 33002KT 9999 FEW010 SCT200 02/M00 Q0995=
  TAF 9 timer BGAA 261158Z 2612/2617 23006KT 9999 FEW010 SCT140 TEMPO 2615/2617 BKN006=


SIGMETS:

Ingen SIGMET fundet:

SNOWTAM:

ICAO
BGAA (AASIAAT)

valid from:
1805261200

Notam_id:
0330

SNOWTAM 0330 A)BGAA B)05261200 C)11 F)NIL/NIL/NIL H)5/5/5 N)NIL/GOOD R)NIL/GOOD T)RWY CLEAR AND DRY - CONTAMINATION HAS CEASED. NO FURTHER STATE MESSAGE WILL BE SENT UNTIL CONTAMINATION CONDITIONS RECUR



NOTAM/SNOWTAM for operationel use has to be confirmed with the
nearest AIS Briefing Office prior to a flight.

ICAO
BGSF (KANGERLUSSUAQ)

FIR
BGGL

Notam_id:
BGA0106/18

valid from:
1803101130

E) PAPI LIGHTS ARE SET ON 10 PERCENT INTENSITY. 20 MINUTES PRIOR NOTICE REQUIRED TO CHANGE SETTING.

valid to:
1806101800EST


Replacing:
BGA0016/18

ICAO
BGSF (KANGERLUSSUAQ)

FIR
BGGL

Notam_id:
BGA0107/18

valid from:
1803101130

E) APCH LIGHTS ARE SET ON 10 PERCENT INTENSITY. 20 MINUTES PRIOR NOTICE REQUIRED TO CHANGE SETTING.

valid to:
1806101800EST


Replacing:
BGA0017/18

ICAO
BGSF (KANGERLUSSUAQ)

FIR
BGGL

Notam_id:
BGA0108/18

valid from:
1803101131

E) RWY EDGE LIGHTS ARE SET ON 10 PERCENT INTENSITY. 20 MINUTES PRIOR NOTICE REQUIRED TO CHANGE SETTING.

valid to:
1806101800EST


Replacing:
BGA0018/18

ICAO
BGSS (SISIMIUT)

FIR
BGGL

Notam_id:
BGB0334/18

valid from:
1804301055

E) BGSS AFIS FREQ 118.100 MHZ NO COVERAGE IN SECTOR BETWEEN 280 MAG AND 110 MAG BELOW 7000FT

valid to:
1806301800EST


Replacing:
BGB0191/18

ICAO
BGGH (NUUK)

FIR
BGGL

Notam_id:
BGB0266/18

valid from:
1804061520

E) BGGH AFIS FREQ 119.100 MHZ NO COVERAGE IN SECTOR BETWEEN 060 DEG MAG AND 210 DEG MAG BELOW FL100.

valid to:
1806302359EST


Replacing:
BGB0265/18

ICAO
BGGH (NUUK)

FIR
BGGL

Notam_id:
BGB0930/17

valid from:
1712181907

E) ERROR IN CHART FOR RNAV (GNSS) APPROACH RWY 23. WITH REF AIP GREENLAND AD 2-BGGH RNAV (GNSS) RWY 23-1. NEW OCA(H) LNAV/VNAV CLIMB 2.5 PERCENT CAT A TO READ 1310 (1029) INSTEAD OF 1230. NEW OCA(H) LNAV/VNAV CLIMB 2.5 PERCENT CAT B TO READ 1340 (1059) INSTEAD OF 1250. NEW OCA(H) LNAV/VNAV CLIMB 5.0 PERCENT CAT A TO READ 1300 (1019) INSTEAD OF 1070. NEW OCA(H) LNAV/VNAV CLIMB 5.0 PERCENT CAT B TO READ 1320 (1039) INSTEAD OF 1110. NEW OCA(H) LNAV CLIMB 5.0 PERCENT CAT A TO READ 1150 (869) IN-STEAD OF 1130. NEW OCA(H) LNAV CLIMB 5.0 PERCENT CAT B TO READ 1240 (959) INSTEAD OF 1230.

valid to:
PERM




ICAO
BGGH (NUUK)

FIR
BGGL

Notam_id:
BGB0340/18

valid from:
1804301700

E) 50CM DEEP HOLES DUG BY THE PAPI'S RWY 05 AND 30CM DEEP HOLES DUG 10 METERS LONG ALONG THE NORTHERN SIDE OF TAXIWAY.

valid to:
1806011900EST


Replacing:
BGB0312/18

ICAO
BGGH (NUUK)

FIR
BGGL

Notam_id:
BGB0338/18

valid from:
1804301657

E) CRANE RAISED AT PSN 641124N0514021W (AIR GREENLAND HANGAR AREA). TOP 82FT AGL.

valid to:
1806301900EST


Replacing:
BGB0264/18

ICAO
BGGH (NUUK)

FIR
BGGL

Notam_id:
BGB0339/18

valid from:
1804301659

E) 50 PCT OF PAPI ON BOTH RWY OUT OF SERVICE. ONLY ONE OF TWO BULBS IS OPERATIONAL ON EVERY PAPI ARMATURE.

valid to:
1805311900EST


Replacing:
BGB0311/18

ICAO
BGGH (NUUK)

FIR
BGGL

Notam_id:
BGB0347/18

valid from:
1805271200

E) RWY 05/23 CLOSED SUNDAY MAY 27'TH BTW 1200-1600 UTC.

valid to:
1805271600




ICAO
BGJN (ILULISSAT)

FIR
BGGL

Notam_id:
BGB0337/18

valid from:
1804301508

E) NDB JV TOP OBSTRUCTION LIGHT OUT OF SERVICE. HGT 246FT.

valid to:
1805311900


Replacing:
BGB0246/18

ICAO
BGGL (SONDRESTROM FIR)

FIR
BGGL

Notam_id:
BGA0176/18

valid from:
1805010506

E) CHECKLIST YEAR=2017 0269 YEAR=2018 0099 0100 0102 0106 0107 0108 0128 0161 0173 0174 0175 LATEST PUBLICATIONS AIP AIRAC AMDT IFR 005/2018 EFFECTIVE DATE 24 MAY 18 AIP AMDT IFR 003/2018 EFFECTIVE DATE 15 MAR 18 AIP SUP IFR 003/2018 EFFECTIVE DATE 24 APR 18 AIC IFR A002/2018 EFFECTIVE DATE 13 FEB 18

valid to:
1806010506EST


Replacing:
BGA0172/18

ICAO
BGGL (SONDRESTROM FIR)

FIR
BGGL

Notam_id:
BGB0341/18

valid from:
1805010506

E) CHECKLIST YEAR=2017 0740 0775 0870 0901 0902 0913 0918 0930 YEAR=2018 0002 0184 0185 0186 0187 0245 0256 0266 0299 0301 0302 0303 0310 0314 0315 0326 0333 0334 0335 0336 0337 0338 0339 0340 LATEST PUBLICATIONS AIP AIRAC AMDT IFR 005/2018 EFFECTIVE DATE 24 MAY 18 AIP AMDT IFR 003/2018 EFFECTIVE DATE 15 MAR 18 AIP SUP IFR 003/2018 EFFECTIVE DATE 24 APR 18 AIC IFR A002/2018 EFFECTIVE DATE 13 FEB 18

valid to:
1806010506EST


Replacing:
BGB0332/18

ICAO
BGGL (SONDRESTROM FIR)

FIR
BGGL

Notam_id:
BGC0038/18

valid from:
1805010506

E) CHECKLIST YEAR=2017 0055 0056 0077 YEAR=2018 0009 0010 0011 0014 0019 0020 0021 0022 0023 0024 0025 0026 0027 0028 0032 0037 LATEST PUBLICATIONS AIP AIRAC AMDT IFR 005/2018 EFFECTIVE DATE 24 MAY 18 AIP AMDT IFR 003/2018 EFFECTIVE DATE 15 MAR 18 AIP SUP IFR 003/2018 EFFECTIVE DATE 24 APR 18 AIC IFR A002/2018 EFFECTIVE DATE 13 FEB 18

valid to:
1806010506EST


Replacing:
BGC0036/18

ICAO
BGGL (SONDRESTROM FIR)

FIR
BGGL

Notam_id:
BGB0349/18

valid from:
1805160800

E) TRIGGER NOTAM - AIP SUP 04/18 - WEF 16 MAY 2018 TIL 09 AUG 2018. TEMPORARY RESTRICTED AREA DUE TO DRONE ACTIVITY. F) SFC G) 12500FT AMSL

valid to:
1805300800




ICAO
BGGL (SONDRESTROM FIR)

FIR
BGGL

Notam_id:
BGA0177/18

valid from:
1806210000

E) TRIGGER NOTAM - PERM AIP AIRAC AMDT 06/18 WEF 21 JUN 2018. VARIATION UPDATED FOR ATS ROUTE W20.

valid to:
1807042359




ICAO
BGGL (SONDRESTROM FIR)

FIR
BGGL

Notam_id:
BGB0350/18

valid from:
1805160800

D) DAILY 0800-2200


E) TEMPORARY RESTRICTED AREA DUE TO DRONE ACTIVITY IS ACTIVE. REF AIP SUP 04/18 PUBLISHED 03 MAY 2018. LATERAL LIMITS: 753531N0361504W 753859N0355013W 753238N0353637W 752918N0360004W NO TRAFFIC PERMITTED IN THE AREA. F) SFC G) 12500FT AMSL

valid to:
1808092200




ICAO
BGAA (AASIAAT)

FIR
BGGL

Notam_id:
BGA0269/17

valid from:
1706081136

D) DAILY 1100-1115 2300-2315


E) ASCENT OR WEATHER BALLOON TAKES PLACE TWICE A DAY 1100-1115 AND 2300-2315. POSN 684201N0525105W LOCATED WEST OF THE AIRPORT AT A DISTANCE OF APPROX 3 KM. THE BALLOON CAN RISE TO A HEIGHT OF UP TO 35 KM. REF AIP GREENLAND AD 2 - BGAA - 4. F) SFC G) FL999

valid to:
PERM





Copyright Naviair   2003-2016